createdAt,value
2022-10-23T00:01:47.196Z,14.93
2022-10-23T00:06:54.197Z,13.43
2022-10-23T00:11:57.043Z,13.95
2022-10-23T00:17:00.204Z,15.02
2022-10-23T00:22:04.497Z,14.75
2022-10-23T00:27:07.253Z,13.65
2022-10-23T00:32:10.023Z,13.63
2022-10-23T00:37:14.130Z,14.65
2022-10-23T00:42:17.919Z,14.68
2022-10-23T00:47:20.869Z,13.82
2022-10-23T00:52:25.604Z,15.00
2022-10-23T01:02:31.520Z,13.38
2022-10-23T01:07:44.511Z,13.95
2022-10-23T01:12:53.638Z,14.57
2022-10-23T01:18:01.238Z,15.07
2022-10-23T01:23:18.355Z,15.35
2022-10-23T01:28:30.557Z,15.38
2022-10-23T01:33:37.022Z,15.35
2022-10-23T01:38:45.899Z,15.15
2022-10-23T01:44:05.277Z,15.13
2022-10-23T01:49:13.952Z,15.02
2022-10-23T01:54:20.518Z,16.90
2022-10-23T01:59:30.868Z,16.60
2022-10-23T02:04:37.489Z,15.98
2022-10-23T02:09:41.077Z,15.88
2022-10-23T02:14:54.434Z,14.75
2022-10-23T02:20:01.533Z,16.67
2022-10-23T02:25:10.339Z,15.80
2022-10-23T02:30:19.803Z,15.13
2022-10-23T02:35:29.519Z,15.82
2022-10-23T02:40:45.314Z,15.27
2022-10-23T02:45:56.942Z,15.63
2022-10-23T02:51:07.286Z,15.73
2022-10-23T02:56:17.056Z,15.00
2022-10-23T03:01:27.403Z,15.55
2022-10-23T03:06:30.537Z,17.23
2022-10-23T03:11:33.459Z,15.75
2022-10-23T03:16:37.596Z,14.98
2022-10-23T03:21:41.187Z,15.65
2022-10-23T03:26:44.659Z,15.45
2022-10-23T03:31:48.894Z,15.32
2022-10-23T03:36:51.769Z,15.95
2022-10-23T03:41:56.468Z,15.40
2022-10-23T03:47:00.810Z,15.10
2022-10-23T03:52:03.966Z,16.20
2022-10-23T03:57:06.712Z,14.98
2022-10-23T04:02:11.615Z,14.93
2022-10-23T04:07:14.525Z,15.13
2022-10-23T04:12:17.414Z,16.38
2022-10-23T04:17:21.707Z,15.32
2022-10-23T04:22:28.305Z,15.88
2022-10-23T04:27:31.380Z,15.15
2022-10-23T04:32:36.448Z,15.70
2022-10-23T04:37:40.719Z,17.23
2022-10-23T04:42:44.154Z,15.93
2022-10-23T04:47:50.126Z,13.50
2022-10-23T04:52:55.289Z,13.00
2022-10-23T04:58:16.459Z,13.43
2022-10-23T05:03:23.338Z,12.15
2022-10-23T05:08:26.381Z,11.40
2022-10-23T05:13:47.825Z,10.57
2022-10-23T05:18:52.335Z,11.30
2022-10-23T05:23:57.359Z,10.70
2022-10-23T05:29:00.289Z,11.25
2022-10-23T05:34:09.920Z,11.52
2022-10-23T05:39:20.166Z,10.93
2022-10-23T05:44:23.244Z,10.15
2022-10-23T05:49:40.734Z,10.30
2022-10-23T05:55:01.664Z,10.63
2022-10-23T06:00:22.775Z,11.52
2022-10-23T06:05:42.738Z,11.25
2022-10-23T06:10:57.536Z,10.60
2022-10-23T06:16:00.269Z,11.13
2022-10-23T06:21:07.667Z,10.55
2022-10-23T06:26:13.439Z,10.02
2022-10-23T06:31:41.177Z,9.10
2022-10-23T06:36:45.395Z,9.05
2022-10-23T06:42:15.068Z,8.80
2022-10-23T06:47:38.077Z,9.05
2022-10-23T06:53:00.929Z,7.90
2022-10-23T06:58:04.572Z,7.38
2022-10-23T07:03:08.547Z,7.57
2022-10-23T07:08:13.083Z,7.47
2022-10-23T07:13:18.210Z,7.47
2022-10-23T07:18:37.275Z,7.80
2022-10-23T07:24:00.494Z,7.63
2022-10-23T07:29:04.007Z,7.45
2022-10-23T07:34:10.884Z,8.30
2022-10-23T07:39:15.508Z,7.60
2022-10-23T07:44:27.898Z,7.20
2022-10-23T07:49:35.131Z,9.27
2022-10-23T07:54:39.331Z,7.85
2022-10-23T07:59:54.959Z,7.95
2022-10-23T08:04:59.780Z,7.60
2022-10-23T08:10:11.108Z,7.18
2022-10-23T08:15:16.955Z,6.50
2022-10-23T08:20:35.271Z,5.90
2022-10-23T08:25:40.078Z,6.22
2022-10-23T08:30:44.538Z,5.72
2022-10-23T08:35:48.345Z,5.45
2022-10-23T08:41:01.480Z,5.38
2022-10-23T08:46:21.009Z,5.35
2022-10-23T08:52:03.737Z,4.88
2022-10-23T08:57:14.707Z,5.17
2022-10-23T09:02:22.444Z,5.40
2022-10-23T09:07:36.466Z,5.15
2022-10-23T09:12:41.070Z,5.40
2022-10-23T09:17:45.677Z,5.47
2022-10-23T09:22:51.217Z,5.25
2022-10-23T09:27:59.051Z,4.78
2022-10-23T09:33:16.231Z,4.88
2022-10-23T09:38:28.624Z,4.78
2022-10-23T09:43:32.800Z,4.72
2022-10-23T09:48:40.051Z,4.70
2022-10-23T09:53:50.428Z,4.88
2022-10-23T09:58:57.544Z,5.10
2022-10-23T10:04:00.673Z,5.05
2022-10-23T10:09:09.338Z,4.90
2022-10-23T10:14:39.245Z,5.00
2022-10-23T10:20:08.554Z,4.88
2022-10-23T10:25:18.293Z,4.80
2022-10-23T10:30:24.675Z,4.95
2022-10-23T10:35:35.332Z,4.47
2022-10-23T10:40:43.748Z,4.50
2022-10-23T10:46:01.986Z,3.67
2022-10-23T10:51:08.482Z,3.75
2022-10-23T10:56:21.599Z,4.07
2022-10-23T11:01:29.909Z,3.85
2022-10-23T11:06:37.587Z,3.80
2022-10-23T11:11:41.647Z,4.10
2022-10-23T11:16:49.032Z,4.03
2022-10-23T11:21:58.401Z,3.80
2022-10-23T11:27:19.684Z,3.63
2022-10-23T11:32:50.214Z,3.95
2022-10-23T11:38:01.147Z,3.63
2022-10-23T11:43:03.902Z,3.58
2022-10-23T11:48:22.990Z,3.55
2022-10-23T11:53:28.981Z,3.38
2022-10-23T11:58:44.309Z,3.58
2022-10-23T12:03:55.236Z,3.60
2022-10-23T12:09:01.884Z,3.53
2022-10-23T12:14:04.799Z,3.53
2022-10-23T12:19:21.385Z,3.70
2022-10-23T12:24:53.612Z,3.13
2022-10-23T12:30:12.888Z,3.47
2022-10-23T12:35:37.107Z,2.70
2022-10-23T12:40:39.988Z,3.65
2022-10-23T12:45:45.094Z,3.20
2022-10-23T12:50:52.003Z,3.45
2022-10-23T13:01:07.888Z,3.53
2022-10-23T13:06:12.681Z,3.90
2022-10-23T13:11:18.501Z,3.70
2022-10-23T13:16:23.597Z,3.78
2022-10-23T13:21:29.666Z,4.70
2022-10-23T13:26:34.954Z,5.10
2022-10-23T13:31:38.282Z,5.70
2022-10-23T13:36:53.606Z,5.30
2022-10-23T13:41:58.142Z,5.63
2022-10-23T13:47:00.986Z,5.40
2022-10-23T13:52:05.289Z,4.65
2022-10-23T13:57:14.586Z,4.82
2022-10-23T14:02:20.954Z,4.30
2022-10-23T14:07:25.256Z,5.00
2022-10-23T14:12:28.078Z,5.30
2022-10-23T14:17:30.896Z,4.93
2022-10-23T14:22:35.032Z,4.30
2022-10-23T14:27:37.824Z,3.75
2022-10-23T14:32:40.907Z,4.07
2022-10-23T14:37:45.517Z,3.70
2022-10-23T14:42:48.698Z,3.33
2022-10-23T14:47:51.491Z,3.63
2022-10-23T14:52:55.593Z,3.85
2022-10-23T14:57:58.588Z,4.57
2022-10-23T15:03:01.593Z,3.60
2022-10-23T15:08:05.835Z,4.50
2022-10-23T15:13:08.696Z,4.65
2022-10-23T15:18:11.499Z,4.47
2022-10-23T15:23:15.609Z,4.40
2022-10-23T15:28:18.412Z,4.15
2022-10-23T15:33:22.084Z,7.35
2022-10-23T15:38:26.406Z,4.05
2022-10-23T15:43:29.195Z,4.07
2022-10-23T15:48:31.955Z,4.32
2022-10-23T15:53:36.389Z,4.70
2022-10-23T15:58:39.509Z,6.15
2022-10-23T16:03:42.468Z,4.65
2022-10-23T16:08:47.075Z,4.85
2022-10-23T16:13:50.261Z,4.40
2022-10-23T16:18:56.691Z,5.32
2022-10-23T16:24:02.984Z,4.47
2022-10-23T16:29:09.139Z,4.18
2022-10-23T16:34:12.726Z,5.18
2022-10-23T16:39:18.980Z,3.78
2022-10-23T16:44:40.149Z,4.57
2022-10-23T16:49:43.290Z,4.93
2022-10-23T16:54:47.429Z,4.50
2022-10-23T16:59:50.174Z,4.00
2022-10-23T17:04:53.639Z,4.28
2022-10-23T17:09:57.790Z,4.60
2022-10-23T17:15:00.635Z,4.13
2022-10-23T17:20:04.450Z,6.63
2022-10-23T17:25:10.596Z,4.70
2022-10-23T17:30:14.460Z,4.57
2022-10-23T17:35:17.316Z,4.53
2022-10-23T17:40:25.032Z,3.90
2022-10-23T17:45:28.291Z,4.10
2022-10-23T17:50:31.175Z,6.38
2022-10-23T17:55:38.902Z,4.60
2022-10-23T18:00:41.821Z,4.50
2022-10-23T18:05:44.646Z,4.88
2022-10-23T18:10:52.170Z,4.68
2022-10-23T18:15:54.963Z,4.60
2022-10-23T18:21:01.033Z,4.97
2022-10-23T18:26:07.049Z,4.25
2022-10-23T18:31:10.293Z,4.20
2022-10-23T18:36:14.746Z,4.07
2022-10-23T18:41:20.061Z,4.75
2022-10-23T18:46:23.548Z,4.60
2022-10-23T18:51:28.676Z,5.20
2022-10-23T18:56:35.708Z,5.82
2022-10-23T19:01:40.822Z,5.28
2022-10-23T19:06:44.166Z,6.20
2022-10-23T19:11:48.588Z,6.32
2022-10-23T19:17:01.150Z,5.05
2022-10-23T19:22:05.657Z,5.30
2022-10-23T19:27:10.607Z,5.45
2022-10-23T19:32:13.821Z,6.95
2022-10-23T19:37:16.682Z,7.30
2022-10-23T19:42:21.113Z,5.50
2022-10-23T19:47:24.240Z,4.78
2022-10-23T19:52:27.378Z,4.28
2022-10-23T19:57:33.728Z,4.30
2022-10-23T20:02:36.798Z,5.55
2022-10-23T20:07:39.558Z,6.35
2022-10-23T20:12:51.491Z,4.82
2022-10-23T20:17:59.698Z,4.90
2022-10-23T20:23:02.547Z,4.25
2022-10-23T20:28:09.081Z,5.03
2022-10-23T20:33:14.455Z,5.50
2022-10-23T20:38:17.306Z,5.30
2022-10-23T20:43:21.635Z,4.78
2022-10-23T20:48:24.367Z,4.93
2022-10-23T20:53:29.599Z,5.22
2022-10-23T20:58:34.119Z,4.63
2022-10-23T21:03:37.166Z,4.55
2022-10-23T21:08:42.598Z,4.53
2022-10-23T21:13:46.825Z,4.45
2022-10-23T21:18:49.690Z,3.78
2022-10-23T21:23:54.658Z,2.95
2022-10-23T21:29:17.317Z,3.22
2022-10-23T21:34:21.083Z,2.67
2022-10-23T21:39:24.205Z,2.30
2022-10-23T21:44:28.429Z,2.17
2022-10-23T21:49:31.211Z,1.90
2022-10-23T21:54:34.122Z,1.70
2022-10-23T21:59:38.273Z,1.25
2022-10-23T22:04:41.468Z,1.05
2022-10-23T22:09:44.645Z,1.20
2022-10-23T22:14:48.766Z,0.90
2022-10-23T22:19:51.609Z,0.93
2022-10-23T22:24:54.411Z,1.67
2022-10-23T22:29:58.625Z,1.15
2022-10-23T22:35:01.449Z,1.02
2022-10-23T22:40:06.613Z,1.30
2022-10-23T22:45:11.449Z,1.50
2022-10-23T22:50:16.279Z,1.33
2022-10-23T22:55:19.100Z,1.60
2022-10-23T23:00:23.555Z,1.63
2022-10-23T23:05:26.616Z,1.80
2022-10-23T23:10:29.463Z,1.85
2022-10-23T23:15:34.025Z,2.13
2022-10-23T23:20:36.968Z,2.10
2022-10-23T23:25:42.298Z,2.00
2022-10-23T23:30:48.093Z,2.00
2022-10-23T23:35:50.945Z,1.70
2022-10-23T23:40:55.263Z,1.90
2022-10-23T23:45:59.938Z,2.28
2022-10-23T23:51:02.701Z,2.50
2022-10-23T23:56:05.992Z,2.35
